createdAt,value
2018-05-01T00:00:22.322Z,994.91
2018-05-01T00:02:15.315Z,994.98
2018-05-01T00:03:15.356Z,995.01
2018-05-01T00:05:08.344Z,995.05
2018-05-01T00:06:08.396Z,994.98
2018-05-01T00:08:01.381Z,994.99
2018-05-01T00:09:01.432Z,995.02
2018-05-01T00:10:54.410Z,995.00
2018-05-01T00:11:54.468Z,995.01
2018-05-01T00:13:47.458Z,995.05
2018-05-01T00:14:47.507Z,995.10
2018-05-01T00:16:40.488Z,995.03
2018-05-01T00:17:40.545Z,995.02
2018-05-01T00:19:33.533Z,994.96
2018-05-01T00:20:33.588Z,995.07
2018-05-01T00:22:26.656Z,995.01
2018-05-01T00:23:26.617Z,995.09
2018-05-01T00:25:19.602Z,995.12
2018-05-01T00:26:19.658Z,995.03
2018-05-01T00:28:12.636Z,995.02
2018-05-01T00:29:12.696Z,995.15
2018-05-01T00:31:05.689Z,995.09
2018-05-01T00:32:05.739Z,995.19
2018-05-01T00:33:58.721Z,995.12
2018-05-01T00:34:58.772Z,995.22
2018-05-01T00:36:51.757Z,995.28
2018-05-01T00:37:51.813Z,995.27
2018-05-01T00:39:44.796Z,995.24
2018-05-01T00:40:44.849Z,995.25
2018-05-01T00:42:37.844Z,995.30
2018-05-01T00:43:37.905Z,995.29
2018-05-01T00:45:30.895Z,995.32
2018-05-01T00:46:30.941Z,995.32
2018-05-01T00:48:23.963Z,995.30
2018-05-01T00:49:23.977Z,995.29
2018-05-01T00:51:16.968Z,995.28
2018-05-01T00:52:17.012Z,995.26
2018-05-01T00:54:10.003Z,995.28
2018-05-01T00:55:10.057Z,995.26
2018-05-01T00:57:03.033Z,995.34
2018-05-01T00:58:03.084Z,995.33
2018-05-01T00:59:56.075Z,995.44
2018-05-01T01:00:56.119Z,995.36
2018-05-01T01:02:49.098Z,995.35
2018-05-01T01:03:49.156Z,995.30
2018-05-01T01:05:42.147Z,995.40
2018-05-01T01:06:42.194Z,995.37
2018-05-01T01:08:35.173Z,995.37
2018-05-01T01:09:35.232Z,995.29
2018-05-01T01:11:28.220Z,995.35
2018-05-01T01:12:28.273Z,995.38
2018-05-01T01:14:21.254Z,995.38
2018-05-01T01:15:21.311Z,995.45
2018-05-01T01:17:14.301Z,995.43
2018-05-01T01:18:14.353Z,995.48
2018-05-01T01:20:07.343Z,995.47
2018-05-01T01:21:07.389Z,995.47
2018-05-01T01:23:00.368Z,995.51
2018-05-01T01:24:00.426Z,995.55
2018-05-01T01:25:53.409Z,995.54
2018-05-01T01:26:53.462Z,995.51
2018-05-01T01:28:46.451Z,995.56
2018-05-01T01:29:46.503Z,995.56
2018-05-01T01:31:39.495Z,995.55
2018-05-01T01:32:39.541Z,995.55
2018-05-01T01:34:32.521Z,995.60
2018-05-01T01:35:32.576Z,995.58
2018-05-01T01:37:25.624Z,995.61
2018-05-01T01:38:25.625Z,995.70
2018-05-01T01:40:18.596Z,995.56
2018-05-01T01:41:18.653Z,995.68
2018-05-01T01:43:11.643Z,995.73
2018-05-01T01:44:11.689Z,995.71
2018-05-01T01:46:04.676Z,995.76
2018-05-01T01:47:04.726Z,995.60
2018-05-01T01:48:57.707Z,995.73
2018-05-01T01:49:57.762Z,995.87
2018-05-01T01:51:50.748Z,995.72
2018-05-01T01:52:50.803Z,995.75
2018-05-01T01:54:43.776Z,995.76
2018-05-01T01:55:43.834Z,995.84
2018-05-01T01:57:36.825Z,995.80
2018-05-01T01:58:36.873Z,995.86
2018-05-01T02:00:29.850Z,995.81
2018-05-01T02:01:29.906Z,995.79
2018-05-01T02:03:22.892Z,995.79
2018-05-01T02:04:22.941Z,995.74
2018-05-01T02:06:15.920Z,995.72
2018-05-01T02:07:15.978Z,995.78
2018-05-01T02:09:08.962Z,995.76
2018-05-01T02:10:09.017Z,995.86
2018-05-01T02:12:02.010Z,995.84
2018-05-01T02:13:02.058Z,995.94
2018-05-01T02:14:55.552Z,995.78
2018-05-01T02:15:55.602Z,995.91
2018-05-01T02:17:48.599Z,995.85
2018-05-01T02:18:48.647Z,995.90
2018-05-01T02:20:41.625Z,995.59
2018-05-01T02:21:41.689Z,995.97
2018-05-01T02:23:34.672Z,996.01
2018-05-01T02:24:34.720Z,995.94
2018-05-01T02:26:27.701Z,995.95
2018-05-01T02:27:27.753Z,995.78
2018-05-01T02:29:20.739Z,995.88
2018-05-01T02:30:20.792Z,996.00
2018-05-01T02:32:13.781Z,996.01
2018-05-01T02:33:13.825Z,995.95
2018-05-01T02:35:06.811Z,995.96
2018-05-01T02:36:06.865Z,996.04
2018-05-01T02:37:59.849Z,996.00
2018-05-01T02:38:59.907Z,996.08
2018-05-01T02:40:52.880Z,996.10
2018-05-01T02:41:52.941Z,996.13
2018-05-01T02:43:45.922Z,996.11
2018-05-01T02:44:45.971Z,996.18
2018-05-01T02:46:38.950Z,996.15
2018-05-01T02:47:39.007Z,996.28
2018-05-01T02:49:31.999Z,996.10
2018-05-01T02:50:32.046Z,996.15
2018-05-01T02:52:25.027Z,996.14
2018-05-01T02:53:25.084Z,996.20
2018-05-01T02:55:18.075Z,996.18
2018-05-01T02:56:18.120Z,996.28
2018-05-01T02:58:11.108Z,996.24
2018-05-01T02:59:11.156Z,996.44
2018-05-01T03:01:04.139Z,996.32
2018-05-01T03:02:04.189Z,996.33
2018-05-01T03:03:57.177Z,996.37
2018-05-01T03:04:57.227Z,996.40
2018-05-01T03:06:50.204Z,996.36
2018-05-01T03:07:50.262Z,996.33
2018-05-01T03:09:43.326Z,996.34
2018-05-01T03:10:43.300Z,996.46
2018-05-01T03:12:36.283Z,996.41
2018-05-01T03:13:36.339Z,996.32
2018-05-01T03:15:29.833Z,996.40
2018-05-01T03:16:29.884Z,996.50
2018-05-01T03:18:22.864Z,996.54
2018-05-01T03:19:22.917Z,996.54
2018-05-01T03:21:15.896Z,996.51
2018-05-01T03:22:15.953Z,996.49
2018-05-01T03:24:08.948Z,996.42
2018-05-01T03:25:08.996Z,996.57
2018-05-01T03:27:01.978Z,996.47
2018-05-01T03:28:02.035Z,996.45
2018-05-01T03:29:55.019Z,996.61
2018-05-01T03:30:55.069Z,996.57
2018-05-01T03:32:48.053Z,996.57
2018-05-01T03:33:48.109Z,996.65
2018-05-01T03:35:41.100Z,996.63
2018-05-01T03:36:41.148Z,996.71
2018-05-01T03:38:34.132Z,996.63
2018-05-01T03:39:34.190Z,996.76
2018-05-01T03:41:27.165Z,996.81
2018-05-01T03:42:27.220Z,996.64
2018-05-01T03:44:20.205Z,996.78
2018-05-01T03:45:20.258Z,996.67
2018-05-01T03:47:13.236Z,996.77
2018-05-01T03:48:13.292Z,996.77
2018-05-01T03:50:06.280Z,996.78
2018-05-01T03:51:06.328Z,996.80
2018-05-01T03:52:59.305Z,996.75
2018-05-01T03:53:59.362Z,996.82
2018-05-01T03:55:52.420Z,996.79
2018-05-01T03:56:52.405Z,996.84
2018-05-01T03:58:45.381Z,996.89
2018-05-01T03:59:45.441Z,996.91
2018-05-01T04:01:38.422Z,996.87
2018-05-01T04:02:38.476Z,996.95
2018-05-01T04:04:31.462Z,997.02
2018-05-01T04:05:31.515Z,997.00
2018-05-01T04:07:24.488Z,996.97
2018-05-01T04:08:24.546Z,997.05
2018-05-01T04:10:17.535Z,997.09
2018-05-01T04:11:17.583Z,997.11
2018-05-01T04:13:10.572Z,997.08
2018-05-01T04:14:10.630Z,997.22
2018-05-01T04:16:03.613Z,997.08
2018-05-01T04:17:03.662Z,997.17
2018-05-01T04:18:56.641Z,997.22
2018-05-01T04:19:56.703Z,997.24
2018-05-01T04:21:49.683Z,997.24
2018-05-01T04:22:49.734Z,997.38
2018-05-01T04:24:42.709Z,997.34
2018-05-01T04:25:42.768Z,997.42
2018-05-01T04:27:35.756Z,997.34
2018-05-01T04:28:35.809Z,997.37
2018-05-01T04:30:28.799Z,997.38
2018-05-01T04:31:28.847Z,997.42
2018-05-01T04:33:21.822Z,997.42
2018-05-01T04:34:21.881Z,997.44
2018-05-01T04:36:14.865Z,997.45
2018-05-01T04:37:14.918Z,997.55
2018-05-01T04:39:07.893Z,997.56
2018-05-01T04:40:07.953Z,997.57
2018-05-01T04:42:00.939Z,997.70
2018-05-01T04:43:00.994Z,997.66
2018-05-01T04:44:53.969Z,997.61
2018-05-01T04:45:54.027Z,997.67
2018-05-01T04:47:47.017Z,997.68
2018-05-01T04:48:47.067Z,997.70
2018-05-01T04:50:40.046Z,997.79
2018-05-01T04:51:40.176Z,997.80
2018-05-01T04:53:33.087Z,997.80
2018-05-01T04:54:33.137Z,997.88
2018-05-01T04:56:26.125Z,997.98
2018-05-01T04:57:26.219Z,997.92
2018-05-01T04:59:19.154Z,997.86
2018-05-01T05:00:19.226Z,997.99
2018-05-01T05:02:12.697Z,997.97
2018-05-01T05:03:12.748Z,998.03
2018-05-01T05:05:05.727Z,998.09
2018-05-01T05:06:05.783Z,998.04
2018-05-01T05:07:58.770Z,998.05
2018-05-01T05:08:58.818Z,998.18
2018-05-01T05:10:51.808Z,998.23
2018-05-01T05:11:51.855Z,998.24
2018-05-01T05:13:44.872Z,998.33
2018-05-01T05:14:44.892Z,998.34
2018-05-01T05:16:37.893Z,998.35
2018-05-01T05:17:37.948Z,998.31
2018-05-01T05:19:30.936Z,998.35
2018-05-01T05:20:30.994Z,998.39
2018-05-01T05:22:23.987Z,998.43
2018-05-01T05:23:24.030Z,998.49
2018-05-01T05:25:17.010Z,998.52
2018-05-01T05:26:17.069Z,998.43
2018-05-01T05:28:10.057Z,998.54
2018-05-01T05:29:10.107Z,998.57
2018-05-01T05:31:03.084Z,998.57
2018-05-01T05:32:03.138Z,998.59
2018-05-01T05:33:56.125Z,998.49
2018-05-01T05:34:56.176Z,998.73
2018-05-01T05:36:49.179Z,998.64
2018-05-01T05:37:49.219Z,998.71
2018-05-01T05:39:42.204Z,998.76
2018-05-01T05:40:42.258Z,998.78
2018-05-01T05:42:35.253Z,998.87
2018-05-01T05:43:35.303Z,998.91
2018-05-01T05:45:28.277Z,998.79
2018-05-01T05:46:28.337Z,998.94
2018-05-01T05:48:21.324Z,998.99
2018-05-01T05:49:21.377Z,998.94
2018-05-01T05:51:14.351Z,999.04
2018-05-01T05:52:14.405Z,998.95
2018-05-01T05:54:07.388Z,999.08
2018-05-01T05:55:07.442Z,999.18
2018-05-01T05:57:00.421Z,999.21
2018-05-01T05:58:00.476Z,999.24
2018-05-01T05:59:53.463Z,999.23
2018-05-01T06:00:53.513Z,999.24
2018-05-01T06:02:46.499Z,999.31
2018-05-01T06:03:46.548Z,999.25
2018-05-01T06:05:39.531Z,999.30
2018-05-01T06:06:39.586Z,999.32
2018-05-01T06:08:32.573Z,999.45
2018-05-01T06:09:32.625Z,999.46
2018-05-01T06:11:25.608Z,999.42
2018-05-01T06:12:25.660Z,999.50
2018-05-01T06:14:18.644Z,999.52
2018-05-01T06:15:18.696Z,999.60
2018-05-01T06:17:11.674Z,999.51
2018-05-01T06:18:11.729Z,999.58
2018-05-01T06:20:04.728Z,999.61
2018-05-01T06:21:04.779Z,999.64
2018-05-01T06:22:57.754Z,999.67
2018-05-01T06:23:57.814Z,999.71
2018-05-01T06:25:50.811Z,999.64
2018-05-01T06:26:50.852Z,999.67
2018-05-01T06:28:43.845Z,999.77
2018-05-01T06:29:43.892Z,999.76
2018-05-01T06:31:36.877Z,999.81
2018-05-01T06:32:36.934Z,999.78
2018-05-01T06:34:29.917Z,999.79
2018-05-01T06:35:29.970Z,999.88
2018-05-01T06:37:22.967Z,999.94
2018-05-01T06:38:23.012Z,999.79
2018-05-01T06:40:16.001Z,999.91
2018-05-01T06:41:16.053Z,999.97
2018-05-01T06:43:09.029Z,999.99
2018-05-01T06:44:09.095Z,1000.07
2018-05-01T06:46:02.071Z,1000.04
2018-05-01T06:47:02.119Z,1000.09
2018-05-01T06:48:55.101Z,1000.15
2018-05-01T06:49:55.158Z,1000.17
2018-05-01T06:51:48.147Z,1000.22
2018-05-01T06:52:48.194Z,1000.27
2018-05-01T06:54:41.197Z,1000.32
2018-05-01T06:55:41.237Z,1000.31
2018-05-01T06:57:34.220Z,1000.42
2018-05-01T06:58:34.283Z,1000.41
2018-05-01T07:00:27.257Z,1000.53
2018-05-01T07:01:27.309Z,1000.40
2018-05-01T07:03:20.290Z,1000.44
2018-05-01T07:04:20.424Z,1000.46
2018-05-01T07:06:13.366Z,1000.48
2018-05-01T07:07:13.387Z,1000.55
2018-05-01T07:09:06.364Z,1000.58
2018-05-01T07:10:06.472Z,1000.63
2018-05-01T07:11:59.413Z,1000.67
2018-05-01T07:12:59.464Z,1000.63
2018-05-01T07:14:52.440Z,1000.71
2018-05-01T07:15:52.531Z,1000.68
2018-05-01T07:17:45.514Z,1000.65
2018-05-01T07:18:45.535Z,1000.82
2018-05-01T07:20:38.525Z,1000.78
2018-05-01T07:21:38.579Z,1000.78
2018-05-01T07:23:31.554Z,1000.79
2018-05-01T07:24:31.609Z,1000.88
2018-05-01T07:26:24.604Z,1000.95
2018-05-01T07:27:24.680Z,1000.96
2018-05-01T07:29:17.628Z,1000.99
2018-05-01T07:30:17.697Z,1001.09
2018-05-01T07:32:10.675Z,1001.05
2018-05-01T07:33:10.722Z,1001.05
2018-05-01T07:35:03.703Z,1001.10
2018-05-01T07:36:03.758Z,1001.10
2018-05-01T07:37:56.756Z,1001.07
2018-05-01T07:38:56.796Z,1001.10
2018-05-01T07:40:49.786Z,1001.06
2018-05-01T07:41:49.839Z,1001.08
2018-05-01T07:43:42.822Z,1001.20
2018-05-01T07:44:42.876Z,1001.13
2018-05-01T07:46:35.860Z,1001.19
2018-05-01T07:47:35.911Z,1001.16
2018-05-01T07:49:28.889Z,1001.31
2018-05-01T07:50:28.947Z,1001.26
2018-05-01T07:52:21.936Z,1001.18
2018-05-01T07:53:21.990Z,1001.35
2018-05-01T07:55:14.967Z,1001.44
2018-05-01T07:56:15.026Z,1001.37
2018-05-01T07:58:08.029Z,1001.31
2018-05-01T07:59:08.072Z,1001.48
2018-05-01T08:01:01.045Z,1001.40
2018-05-01T08:02:01.105Z,1001.40
2018-05-01T08:03:54.601Z,1001.40
2018-05-01T08:04:54.649Z,1001.61
2018-05-01T08:06:47.639Z,1001.51
2018-05-01T08:07:47.687Z,1001.59
2018-05-01T08:09:40.671Z,1001.61
2018-05-01T08:10:40.724Z,1001.64
2018-05-01T08:12:33.709Z,1001.70
2018-05-01T08:13:33.819Z,1001.58
2018-05-01T08:15:26.740Z,1001.72
2018-05-01T08:16:26.798Z,1001.75
2018-05-01T08:18:19.789Z,1001.79
2018-05-01T08:19:19.840Z,1001.79
2018-05-01T08:21:12.820Z,1001.88
2018-05-01T08:22:12.878Z,1001.84
2018-05-01T08:24:05.870Z,1002.01
2018-05-01T08:25:05.918Z,1001.97
2018-05-01T08:26:58.900Z,1001.96
2018-05-01T08:27:58.956Z,1002.00
2018-05-01T08:29:51.946Z,1002.11
2018-05-01T08:30:51.994Z,1002.05
2018-05-01T08:32:44.987Z,1002.16
2018-05-01T08:33:45.033Z,1002.11
2018-05-01T08:35:38.011Z,1002.24
2018-05-01T08:36:38.069Z,1002.17
2018-05-01T08:38:31.062Z,1002.19
2018-05-01T08:39:31.109Z,1002.21
2018-05-01T08:41:24.090Z,1002.22
2018-05-01T08:42:24.152Z,1002.30
2018-05-01T08:44:17.143Z,1002.40
2018-05-01T08:45:17.275Z,1002.39
2018-05-01T08:47:10.182Z,1002.46
2018-05-01T08:48:10.241Z,1002.53
2018-05-01T08:50:03.234Z,1002.52
2018-05-01T08:51:03.283Z,1002.48
2018-05-01T08:52:56.261Z,1002.46
2018-05-01T08:53:56.326Z,1002.47
2018-05-01T08:55:49.318Z,1002.49
2018-05-01T08:56:49.365Z,1002.51
2018-05-01T08:58:42.358Z,1002.56
2018-05-01T08:59:42.409Z,1002.53
2018-05-01T09:01:35.393Z,1002.56
2018-05-01T09:02:35.451Z,1002.54
2018-05-01T09:04:29.950Z,1002.58
2018-05-01T09:05:30.001Z,1002.62
2018-05-01T09:07:22.984Z,1002.60
2018-05-01T09:08:23.043Z,1002.65
2018-05-01T09:10:16.035Z,1002.53
2018-05-01T09:11:16.085Z,1002.74
2018-05-01T09:13:09.070Z,1002.71
2018-05-01T09:14:09.128Z,1002.79
2018-05-01T09:16:02.120Z,1002.78
2018-05-01T09:17:02.203Z,1002.79
2018-05-01T09:18:55.160Z,1002.83
2018-05-01T09:19:55.210Z,1002.80
2018-05-01T09:21:48.196Z,1002.94
2018-05-01T09:22:48.255Z,1002.91
2018-05-01T09:24:41.241Z,1002.96
2018-05-01T09:25:41.296Z,1002.97
2018-05-01T09:27:34.281Z,1003.05
2018-05-01T09:28:34.335Z,1003.00
2018-05-01T09:30:27.324Z,1003.09
2018-05-01T09:31:27.379Z,1003.02
2018-05-01T09:33:20.368Z,1003.03
2018-05-01T09:34:20.425Z,1003.16
2018-05-01T09:36:13.416Z,1003.04
2018-05-01T09:37:13.470Z,1003.15
2018-05-01T09:39:06.464Z,1003.07
2018-05-01T09:40:06.521Z,1003.15
2018-05-01T09:41:59.620Z,1003.15
2018-05-01T09:42:59.566Z,1003.16
2018-05-01T09:44:52.557Z,1003.21
2018-05-01T09:45:52.606Z,1003.19
2018-05-01T09:47:45.591Z,1003.18
2018-05-01T09:48:45.651Z,1003.10
2018-05-01T09:50:38.644Z,1003.23
2018-05-01T09:51:38.693Z,1003.24
2018-05-01T09:53:31.680Z,1003.21
2018-05-01T09:54:31.741Z,1003.31
2018-05-01T09:56:24.737Z,1003.17
2018-05-01T09:57:24.794Z,1003.22
2018-05-01T09:59:17.800Z,1003.24
2018-05-01T10:00:17.879Z,1003.26
2018-05-01T10:02:10.842Z,1003.34
2018-05-01T10:03:10.939Z,1003.38
2018-05-01T10:05:03.896Z,1003.39
2018-05-01T10:06:03.949Z,1003.48
2018-05-01T10:07:56.934Z,1003.42
2018-05-01T10:08:56.996Z,1003.49
2018-05-01T10:10:49.988Z,1003.53
2018-05-01T10:11:50.048Z,1003.50
2018-05-01T10:13:43.031Z,1003.46
2018-05-01T10:14:43.093Z,1003.68
2018-05-01T10:16:36.093Z,1003.54
2018-05-01T10:17:36.134Z,1003.60
2018-05-01T10:19:29.127Z,1003.64
2018-05-01T10:20:29.185Z,1003.53
2018-05-01T10:22:22.169Z,1003.76
2018-05-01T10:23:22.228Z,1003.63
2018-05-01T10:25:15.217Z,1003.63
2018-05-01T10:26:15.271Z,1003.69
2018-05-01T10:28:08.257Z,1003.63
2018-05-01T10:29:08.317Z,1003.71
2018-05-01T10:31:01.309Z,1003.73
2018-05-01T10:32:01.368Z,1003.78
2018-05-01T10:33:54.358Z,1003.84
2018-05-01T10:34:54.414Z,1003.83
2018-05-01T10:36:47.401Z,1003.71
2018-05-01T10:37:47.459Z,1003.68
2018-05-01T10:39:40.452Z,1003.66
2018-05-01T10:40:40.512Z,1003.76
2018-05-01T10:42:33.496Z,1003.69
2018-05-01T10:43:33.557Z,1003.77
2018-05-01T10:45:26.546Z,1003.65
2018-05-01T10:46:26.602Z,1003.66
2018-05-01T10:48:19.587Z,1003.73
2018-05-01T10:49:19.666Z,1003.72
2018-05-01T10:51:12.642Z,1003.78
2018-05-01T10:52:12.691Z,1003.76
2018-05-01T10:54:05.676Z,1003.86
2018-05-01T10:55:05.738Z,1003.86
2018-05-01T10:56:58.731Z,1003.85
2018-05-01T10:57:58.988Z,1003.88
2018-05-01T10:59:51.781Z,1003.98
2018-05-01T11:00:51.839Z,1003.97
2018-05-01T11:02:44.820Z,1003.96
2018-05-01T11:03:44.883Z,1004.03
2018-05-01T11:05:37.888Z,1004.01
2018-05-01T11:06:37.938Z,1004.15
2018-05-01T11:08:30.924Z,1004.03
2018-05-01T11:09:30.982Z,1004.06
2018-05-01T11:11:23.973Z,1004.08
2018-05-01T11:12:24.029Z,1004.12
2018-05-01T11:14:17.008Z,1004.10
2018-05-01T11:15:17.076Z,1004.18
2018-05-01T11:17:10.068Z,1003.99
2018-05-01T11:18:10.120Z,1004.24
2018-05-01T11:20:03.116Z,1004.21
2018-05-01T11:21:03.167Z,1004.18
2018-05-01T11:22:56.163Z,1004.31
2018-05-01T11:23:56.220Z,1004.25
2018-05-01T11:25:49.231Z,1004.26
2018-05-01T11:26:49.272Z,1004.29
2018-05-01T11:28:42.257Z,1004.26
2018-05-01T11:29:42.320Z,1004.30
2018-05-01T11:31:35.318Z,1004.38
2018-05-01T11:32:35.370Z,1004.36
2018-05-01T11:34:28.366Z,1004.35
2018-05-01T11:35:28.422Z,1004.41
2018-05-01T11:37:21.422Z,1004.45
2018-05-01T11:38:21.481Z,1004.45
2018-05-01T11:40:14.988Z,1004.51
2018-05-01T11:41:15.038Z,1004.53
2018-05-01T11:43:08.029Z,1004.52
2018-05-01T11:44:08.088Z,1004.53
2018-05-01T11:46:01.080Z,1004.55
2018-05-01T11:47:01.137Z,1004.60
2018-05-01T11:48:54.124Z,1004.63
2018-05-01T11:49:54.183Z,1004.57
2018-05-01T11:51:47.178Z,1004.64
2018-05-01T11:52:47.232Z,1004.66
2018-05-01T11:54:40.220Z,1004.64
2018-05-01T11:55:40.277Z,1004.68
2018-05-01T11:57:33.275Z,1004.73
2018-05-01T11:58:33.494Z,1004.67
2018-05-01T12:00:26.325Z,1004.73
2018-05-01T12:01:26.379Z,1004.72
2018-05-01T12:03:19.367Z,1004.71
2018-05-01T12:04:19.430Z,1004.77
2018-05-01T12:06:12.422Z,1004.77
2018-05-01T12:07:12.483Z,1004.79
2018-05-01T12:09:05.470Z,1004.75
2018-05-01T12:10:05.533Z,1004.82
2018-05-01T12:11:58.529Z,1004.82
2018-05-01T12:12:58.586Z,1004.83
2018-05-01T12:14:51.579Z,1004.85
2018-05-01T12:15:51.638Z,1004.89
2018-05-01T12:17:44.653Z,1004.93
2018-05-01T12:18:44.711Z,1004.94
2018-05-01T12:20:37.716Z,1004.90
2018-05-01T12:21:37.761Z,1004.91
2018-05-01T12:23:30.762Z,1004.97
2018-05-01T12:24:30.816Z,1004.96
2018-05-01T12:26:23.849Z,1004.88
2018-05-01T12:27:23.884Z,1004.96
2018-05-01T12:29:16.868Z,1004.94
2018-05-01T12:30:16.926Z,1004.94
2018-05-01T12:32:09.927Z,1005.02
2018-05-01T12:33:09.983Z,1004.96
2018-05-01T12:35:02.992Z,1004.94
2018-05-01T12:36:03.056Z,1004.87
2018-05-01T12:37:56.051Z,1004.87
2018-05-01T12:38:56.102Z,1004.93
2018-05-01T12:40:49.606Z,1004.91
2018-05-01T12:41:49.658Z,1004.93
2018-05-01T12:43:42.648Z,1005.00
2018-05-01T12:44:42.708Z,1004.93
2018-05-01T12:46:35.712Z,1005.05
2018-05-01T12:47:35.764Z,1005.09
2018-05-01T12:49:28.749Z,1005.04
2018-05-01T12:50:28.831Z,1005.06
2018-05-01T12:52:21.805Z,1005.14
2018-05-01T12:53:21.860Z,1005.17
2018-05-01T12:55:14.849Z,1005.12
2018-05-01T12:56:14.910Z,1005.14
2018-05-01T12:58:07.906Z,1005.09
2018-05-01T12:59:07.965Z,1005.10
2018-05-01T13:01:00.950Z,1005.20
2018-05-01T13:02:01.006Z,1005.19
2018-05-01T13:03:53.997Z,1005.20
2018-05-01T13:04:54.060Z,1005.21
2018-05-01T13:06:47.055Z,1005.16
2018-05-01T13:07:47.109Z,1005.16
2018-05-01T13:09:40.097Z,1005.12
2018-05-01T13:10:40.157Z,1005.23
2018-05-01T13:12:33.170Z,1005.27
2018-05-01T13:13:33.208Z,1005.23
2018-05-01T13:15:26.198Z,1005.22
2018-05-01T13:16:26.260Z,1005.24
2018-05-01T13:18:19.252Z,1005.22
2018-05-01T13:19:19.308Z,1005.27
2018-05-01T13:21:12.304Z,1005.28
2018-05-01T13:22:12.358Z,1005.27
2018-05-01T13:24:05.345Z,1005.26
2018-05-01T13:25:05.406Z,1005.30
2018-05-01T13:26:58.402Z,1005.38
2018-05-01T13:27:58.457Z,1005.37
2018-05-01T13:29:51.454Z,1005.34
2018-05-01T13:30:51.511Z,1005.41
2018-05-01T13:32:44.514Z,1005.40
2018-05-01T13:33:44.564Z,1005.34
2018-05-01T13:35:37.557Z,1005.43
2018-05-01T13:36:37.640Z,1005.37
2018-05-01T13:38:30.613Z,1005.36
2018-05-01T13:39:30.670Z,1005.47
2018-05-01T13:41:23.669Z,1005.39
2018-05-01T13:42:23.725Z,1005.41
2018-05-01T13:44:16.713Z,1005.47
2018-05-01T13:45:16.841Z,1005.46
2018-05-01T13:47:09.767Z,1005.45
2018-05-01T13:48:09.823Z,1005.49
2018-05-01T13:50:02.816Z,1005.49
2018-05-01T13:51:02.873Z,1005.53
2018-05-01T13:52:55.870Z,1005.57
2018-05-01T13:53:55.950Z,1005.60
2018-05-01T13:55:48.920Z,1005.58
2018-05-01T13:56:48.981Z,1005.60
2018-05-01T13:58:41.976Z,1005.56
2018-05-01T13:59:42.034Z,1005.57
2018-05-01T14:01:35.024Z,1005.48
2018-05-01T14:02:35.078Z,1005.55
2018-05-01T14:04:28.084Z,1005.54
2018-05-01T14:05:28.127Z,1005.59
2018-05-01T14:07:21.127Z,1005.64
2018-05-01T14:08:21.182Z,1005.62
2018-05-01T14:10:14.168Z,1005.69
2018-05-01T14:11:14.234Z,1005.67
2018-05-01T14:13:07.238Z,1005.66
2018-05-01T14:14:07.300Z,1005.63
2018-05-01T14:16:00.784Z,1005.65
2018-05-01T14:17:00.838Z,1005.72
2018-05-01T14:18:53.835Z,1005.67
2018-05-01T14:19:53.903Z,1005.64
2018-05-01T14:21:46.882Z,1005.65
2018-05-01T14:22:46.935Z,1005.66
2018-05-01T14:24:39.926Z,1005.67
2018-05-01T14:25:40.055Z,1005.73
2018-05-01T14:27:32.984Z,1005.80
2018-05-01T14:28:33.046Z,1005.76
2018-05-01T14:30:26.020Z,1005.80
2018-05-01T14:31:26.080Z,1005.88
2018-05-01T14:33:19.154Z,1005.86
2018-05-01T14:34:19.137Z,1005.83
2018-05-01T14:36:12.133Z,1005.86
2018-05-01T14:37:12.194Z,1005.84
2018-05-01T14:39:05.196Z,1005.81
2018-05-01T14:40:05.246Z,1005.85
2018-05-01T14:41:58.341Z,1005.87
2018-05-01T14:42:58.307Z,1005.86
2018-05-01T14:44:51.294Z,1005.85
2018-05-01T14:45:51.355Z,1005.88
2018-05-01T14:47:44.353Z,1005.92
2018-05-01T14:48:44.408Z,1005.92
2018-05-01T14:50:37.402Z,1005.87
2018-05-01T14:51:37.461Z,1005.87
2018-05-01T14:53:30.455Z,1005.88
2018-05-01T14:54:30.511Z,1005.97
2018-05-01T14:56:23.501Z,1005.95
2018-05-01T14:57:23.571Z,1006.00
2018-05-01T14:59:16.563Z,1005.99
2018-05-01T15:00:16.617Z,1005.98
2018-05-01T15:02:09.611Z,1005.95
2018-05-01T15:03:09.669Z,1005.90
2018-05-01T15:05:02.654Z,1005.94
2018-05-01T15:06:02.715Z,1005.96
2018-05-01T15:07:55.707Z,1005.92
2018-05-01T15:08:55.815Z,1006.00
2018-05-01T15:10:48.754Z,1006.00
2018-05-01T15:11:48.814Z,1006.02
2018-05-01T15:13:41.811Z,1006.01
2018-05-01T15:14:41.863Z,1006.02
2018-05-01T15:16:35.361Z,1006.08
2018-05-01T15:17:35.420Z,1006.08
2018-05-01T15:19:28.432Z,1006.08
2018-05-01T15:20:28.465Z,1006.14
2018-05-01T15:22:21.460Z,1006.12
2018-05-01T15:23:21.515Z,1006.07
2018-05-01T15:25:14.501Z,1006.11
2018-05-01T15:26:14.562Z,1006.15
2018-05-01T15:28:07.556Z,1006.16
2018-05-01T15:29:07.612Z,1006.19
2018-05-01T15:31:00.600Z,1006.19
2018-05-01T15:32:00.659Z,1006.19
2018-05-01T15:33:53.661Z,1006.21
2018-05-01T15:34:53.717Z,1006.22
2018-05-01T15:36:46.717Z,1006.17
2018-05-01T15:37:46.774Z,1006.23
2018-05-01T15:39:39.774Z,1006.18
2018-05-01T15:40:39.831Z,1006.19
2018-05-01T15:42:32.828Z,1006.20
2018-05-01T15:43:32.881Z,1006.20
2018-05-01T15:45:25.877Z,1006.25
2018-05-01T15:46:25.929Z,1006.21
2018-05-01T15:48:18.925Z,1006.28
2018-05-01T15:49:18.976Z,1006.28
2018-05-01T15:51:11.967Z,1006.31
2018-05-01T15:52:12.027Z,1006.32
2018-05-01T15:54:05.024Z,1006.32
2018-05-01T15:55:05.079Z,1006.32
2018-05-01T15:56:58.071Z,1006.35
2018-05-01T15:57:58.129Z,1006.33
2018-05-01T15:59:51.127Z,1006.35
2018-05-01T16:00:51.179Z,1006.44
2018-05-01T16:02:44.171Z,1006.35
2018-05-01T16:03:44.232Z,1006.38
2018-05-01T16:05:37.213Z,1006.40
2018-05-01T16:06:37.279Z,1006.40
2018-05-01T16:08:30.270Z,1006.40
2018-05-01T16:09:30.322Z,1006.43
2018-05-01T16:11:23.306Z,1006.43
2018-05-01T16:12:23.368Z,1006.38
2018-05-01T16:14:16.416Z,1006.37
2018-05-01T16:15:16.421Z,1006.36
2018-05-01T16:17:09.409Z,1006.39
2018-05-01T16:18:09.470Z,1006.43
2018-05-01T16:20:02.468Z,1006.48
2018-05-01T16:21:02.522Z,1006.47
2018-05-01T16:22:55.518Z,1006.44
2018-05-01T16:23:55.613Z,1006.46
2018-05-01T16:25:48.601Z,1006.41
2018-05-01T16:26:48.630Z,1006.43
2018-05-01T16:28:41.622Z,1006.42
2018-05-01T16:29:41.676Z,1006.40
2018-05-01T16:31:34.667Z,1006.39
2018-05-01T16:32:34.723Z,1006.39
2018-05-01T16:34:27.719Z,1006.40
2018-05-01T16:35:27.778Z,1006.39
2018-05-01T16:37:20.757Z,1006.44
2018-05-01T16:38:20.818Z,1006.46
2018-05-01T16:40:13.849Z,1006.48
2018-05-01T16:41:13.863Z,1006.44
2018-05-01T16:43:06.859Z,1006.41
2018-05-01T16:44:06.911Z,1006.45
2018-05-01T16:45:59.898Z,1006.49
2018-05-01T16:46:59.960Z,1006.45
2018-05-01T16:48:52.955Z,1006.44
2018-05-01T16:49:53.006Z,1006.43
2018-05-01T16:51:46.003Z,1006.44
2018-05-01T16:52:46.067Z,1006.44
2018-05-01T16:54:39.065Z,1006.42
2018-05-01T16:55:39.120Z,1006.45
2018-05-01T16:57:32.117Z,1006.45
2018-05-01T16:58:32.476Z,1006.42
2018-05-01T17:00:25.192Z,1006.43
2018-05-01T17:01:25.223Z,1006.42
2018-05-01T17:03:18.210Z,1006.42
2018-05-01T17:04:18.449Z,1006.44
2018-05-01T17:06:11.254Z,1006.45
2018-05-01T17:07:11.312Z,1006.48
2018-05-01T17:09:04.309Z,1006.42
2018-05-01T17:10:04.368Z,1006.45
2018-05-01T17:11:57.353Z,1006.48
2018-05-01T17:12:57.494Z,1006.47
2018-05-01T17:14:50.410Z,1006.52
2018-05-01T17:15:50.472Z,1006.51
2018-05-01T17:17:43.462Z,1006.50
2018-05-01T17:18:43.513Z,1006.52
2018-05-01T17:20:36.505Z,1006.52
2018-05-01T17:21:36.565Z,1006.52
2018-05-01T17:23:29.557Z,1006.54
2018-05-01T17:24:29.609Z,1006.54
2018-05-01T17:26:22.591Z,1006.55
2018-05-01T17:27:22.659Z,1006.58
2018-05-01T17:29:15.663Z,1006.55
2018-05-01T17:30:15.698Z,1006.55
2018-05-01T17:32:08.691Z,1006.54
2018-05-01T17:33:08.750Z,1006.62
2018-05-01T17:35:02.257Z,1006.61
2018-05-01T17:36:02.301Z,1006.60
2018-05-01T17:37:55.294Z,1006.61
2018-05-01T17:38:55.352Z,1006.64